createdAt,value
2016-12-26T00:00:25.724Z,11.3
2016-12-26T00:01:40.495Z,11.29
2016-12-26T00:02:55.558Z,11.31
2016-12-26T00:04:10.096Z,11.32
2016-12-26T00:05:24.902Z,11.34
2016-12-26T00:06:39.756Z,11.36
2016-12-26T00:07:54.619Z,11.39
2016-12-26T00:09:09.244Z,11.41
2016-12-26T00:10:24.321Z,11.42
2016-12-26T00:11:39.115Z,11.43
2016-12-26T00:12:53.662Z,11.43
2016-12-26T00:14:07.790Z,11.44
2016-12-26T00:15:22.736Z,11.44
2016-12-26T00:16:36.901Z,11.44
2016-12-26T00:17:52.603Z,11.45
2016-12-26T00:19:06.988Z,11.47
2016-12-26T00:20:22.144Z,11.49
2016-12-26T00:21:36.299Z,11.47
2016-12-26T00:22:51.244Z,11.47
2016-12-26T00:24:05.348Z,11.47
2016-12-26T00:25:20.186Z,11.45
2016-12-26T00:26:35.457Z,11.46
2016-12-26T00:27:50.395Z,11.45
2016-12-26T00:29:04.828Z,11.45
2016-12-26T00:30:19.335Z,11.44
2016-12-26T00:31:34.410Z,11.45
2016-12-26T00:32:48.470Z,11.44
2016-12-26T00:34:02.996Z,11.44
2016-12-26T00:35:17.062Z,11.44
2016-12-26T00:36:31.511Z,11.44
2016-12-26T00:37:46.549Z,11.43
2016-12-26T00:39:00.667Z,11.44
2016-12-26T00:40:14.801Z,11.47
2016-12-26T00:41:30.085Z,11.5
2016-12-26T00:42:45.685Z,11.52
2016-12-26T00:44:00.260Z,11.57
2016-12-26T00:45:14.607Z,11.59
2016-12-26T00:46:28.673Z,11.61
2016-12-26T00:47:43.480Z,11.62
2016-12-26T00:48:58.069Z,11.63
2016-12-26T00:50:12.687Z,11.64
2016-12-26T00:51:26.774Z,11.65
2016-12-26T00:52:41.356Z,11.65
2016-12-26T00:53:55.492Z,11.65
2016-12-26T00:55:10.241Z,11.64
2016-12-26T00:56:24.659Z,11.64
2016-12-26T00:57:38.742Z,11.65
2016-12-26T00:58:53.009Z,11.65
2016-12-26T01:00:07.513Z,11.65
2016-12-26T01:01:24.334Z,11.64
2016-12-26T01:02:38.651Z,11.64
2016-12-26T01:03:53.034Z,11.64
2016-12-26T01:05:07.180Z,11.65
2016-12-26T01:06:21.892Z,11.67
2016-12-26T01:07:36.378Z,11.68
2016-12-26T01:08:51.366Z,11.67
2016-12-26T01:10:05.422Z,11.65
2016-12-26T01:11:19.705Z,11.61
2016-12-26T01:12:34.099Z,11.58
2016-12-26T01:13:48.342Z,11.58
2016-12-26T01:15:02.661Z,11.57
2016-12-26T01:16:16.833Z,11.57
2016-12-26T01:17:31.213Z,11.55
2016-12-26T01:18:45.925Z,11.54
2016-12-26T01:19:59.984Z,11.56
2016-12-26T01:21:14.717Z,11.56
2016-12-26T01:22:28.818Z,11.56
2016-12-26T01:23:43.341Z,11.56
2016-12-26T01:24:57.656Z,11.57
2016-12-26T01:26:11.718Z,11.58
2016-12-26T01:27:26.333Z,11.59
2016-12-26T01:28:40.461Z,11.59
2016-12-26T01:29:55.011Z,11.61
2016-12-26T01:31:09.059Z,11.6
2016-12-26T01:32:23.918Z,11.62
2016-12-26T01:33:38.261Z,11.63
2016-12-26T01:34:52.995Z,11.64
2016-12-26T01:36:07.242Z,11.67
2016-12-26T01:37:21.274Z,11.7
2016-12-26T01:38:35.636Z,11.72
2016-12-26T01:39:49.988Z,11.73
2016-12-26T01:41:04.842Z,11.73
2016-12-26T01:42:19.584Z,11.69
2016-12-26T01:43:33.739Z,11.66
2016-12-26T01:44:48.371Z,11.62
2016-12-26T01:46:02.669Z,11.59
2016-12-26T01:47:16.724Z,11.59
2016-12-26T01:48:30.778Z,11.59
2016-12-26T01:49:45.107Z,11.6
2016-12-26T01:50:59.561Z,11.6
2016-12-26T01:52:13.889Z,11.62
2016-12-26T01:53:27.967Z,11.61
2016-12-26T01:54:41.998Z,11.61
2016-12-26T01:55:56.093Z,11.62
2016-12-26T01:57:10.830Z,11.62
2016-12-26T01:58:25.144Z,11.63
2016-12-26T01:59:40.015Z,11.62
2016-12-26T02:00:54.085Z,11.62
2016-12-26T02:02:08.641Z,11.63
2016-12-26T02:03:23.621Z,11.65
2016-12-26T02:04:38.308Z,11.68
2016-12-26T02:05:53.515Z,11.71
2016-12-26T02:07:07.615Z,11.71
2016-12-26T02:08:21.831Z,11.73
2016-12-26T02:09:36.060Z,11.74
2016-12-26T02:10:51.109Z,11.77
2016-12-26T02:12:05.277Z,11.78
2016-12-26T02:13:20.087Z,11.77
2016-12-26T02:14:34.553Z,11.76
2016-12-26T02:15:49.128Z,11.76
2016-12-26T02:17:03.461Z,11.73
2016-12-26T02:18:21.181Z,11.7
2016-12-26T02:19:35.353Z,11.67
2016-12-26T02:20:49.432Z,11.66
2016-12-26T02:22:03.648Z,11.64
2016-12-26T02:23:18.062Z,11.63
2016-12-26T02:24:32.103Z,11.61
2016-12-26T02:25:46.826Z,11.6
2016-12-26T02:27:01.295Z,11.57
2016-12-26T02:28:15.787Z,11.53
2016-12-26T02:29:30.154Z,11.51
2016-12-26T02:30:44.220Z,11.5
2016-12-26T02:31:58.876Z,11.49
2016-12-26T02:33:12.941Z,11.49
2016-12-26T02:34:28.037Z,11.48
2016-12-26T02:35:42.806Z,11.47
2016-12-26T02:36:57.234Z,11.45
2016-12-26T02:38:11.278Z,11.45
2016-12-26T02:39:25.405Z,11.46
2016-12-26T02:40:39.929Z,11.47
2016-12-26T02:41:54.227Z,11.45
2016-12-26T02:43:08.628Z,11.42
2016-12-26T02:44:22.672Z,11.43
2016-12-26T02:45:37.089Z,11.43
2016-12-26T02:46:51.324Z,11.42
2016-12-26T02:48:05.634Z,11.4
2016-12-26T02:49:20.213Z,11.38
2016-12-26T02:50:34.776Z,11.37
2016-12-26T02:51:48.976Z,11.37
2016-12-26T02:53:03.226Z,11.39
2016-12-26T02:54:17.709Z,11.38
2016-12-26T02:55:32.276Z,11.38
2016-12-26T02:56:46.372Z,11.39
2016-12-26T02:58:00.427Z,11.39
2016-12-26T02:59:15.432Z,11.39
2016-12-26T03:00:30.568Z,11.39
2016-12-26T03:01:45.160Z,11.37
2016-12-26T03:02:59.272Z,11.35
2016-12-26T03:04:13.754Z,11.33
2016-12-26T03:05:28.097Z,11.31
2016-12-26T03:06:42.881Z,11.3
2016-12-26T03:07:57.578Z,11.27
2016-12-26T03:09:12.299Z,11.26
2016-12-26T03:10:26.828Z,11.25
2016-12-26T03:11:41.152Z,11.25
2016-12-26T03:12:55.475Z,11.24
2016-12-26T03:14:10.174Z,11.23
2016-12-26T03:15:24.673Z,11.24
2016-12-26T03:16:39.283Z,11.25
2016-12-26T03:17:53.824Z,11.27
2016-12-26T03:19:08.128Z,11.3
2016-12-26T03:20:22.412Z,11.32
2016-12-26T03:21:36.812Z,11.34
2016-12-26T03:22:50.846Z,11.35
2016-12-26T03:24:05.307Z,11.38
2016-12-26T03:25:19.749Z,11.4
2016-12-26T03:26:33.853Z,11.41
2016-12-26T03:27:48.127Z,11.41
2016-12-26T03:29:02.167Z,11.43
2016-12-26T03:30:16.257Z,11.45
2016-12-26T03:31:30.822Z,11.49
2016-12-26T03:32:44.921Z,11.48
2016-12-26T03:33:59.368Z,11.48
2016-12-26T03:35:15.967Z,11.49
2016-12-26T03:36:30.030Z,11.5
2016-12-26T03:37:44.383Z,11.49
2016-12-26T03:38:58.446Z,11.49
2016-12-26T03:40:12.930Z,11.47
2016-12-26T03:41:27.743Z,11.44
2016-12-26T03:42:42.408Z,11.4
2016-12-26T03:43:57.287Z,11.4
2016-12-26T03:45:11.715Z,11.4
2016-12-26T03:46:26.050Z,11.4
2016-12-26T03:47:40.070Z,11.41
2016-12-26T03:48:54.365Z,11.42
2016-12-26T03:50:09.302Z,11.44
2016-12-26T03:51:23.458Z,11.45
2016-12-26T03:52:37.476Z,11.46
2016-12-26T03:53:52.150Z,11.47
2016-12-26T03:55:06.559Z,11.45
2016-12-26T03:56:21.399Z,11.45
2016-12-26T03:57:35.767Z,11.46
2016-12-26T03:58:49.801Z,11.46
2016-12-26T04:00:19.294Z,11.48
2016-12-26T04:01:33.597Z,11.5
2016-12-26T04:02:48.010Z,11.48
2016-12-26T04:04:02.285Z,11.44
2016-12-26T04:05:16.576Z,11.39
2016-12-26T04:06:30.658Z,11.35
2016-12-26T04:07:45.013Z,11.35
2016-12-26T04:08:59.120Z,11.35
2016-12-26T04:12:02.999Z,11.38
2016-12-26T04:13:23.694Z,11.37
2016-12-26T04:14:44.033Z,11.35
2016-12-26T04:16:03.169Z,11.35
2016-12-26T04:17:17.873Z,11.35
2016-12-26T04:18:34.621Z,11.37
2016-12-26T04:19:50.596Z,11.37
2016-12-26T04:21:04.648Z,11.4
2016-12-26T04:22:18.714Z,11.41
2016-12-26T04:23:33.016Z,11.41
2016-12-26T04:24:47.681Z,11.43
2016-12-26T04:26:01.717Z,11.46
2016-12-26T04:27:15.798Z,11.49
2016-12-26T04:28:29.844Z,11.52
2016-12-26T04:29:44.275Z,11.56
2016-12-26T04:30:58.647Z,11.57
2016-12-26T04:32:13.037Z,11.59
2016-12-26T04:33:27.365Z,11.59
2016-12-26T04:34:41.440Z,11.61
2016-12-26T04:35:55.741Z,11.61
2016-12-26T04:37:10.047Z,11.59
2016-12-26T04:38:24.091Z,11.6
2016-12-26T04:39:38.203Z,11.62
2016-12-26T04:40:52.861Z,11.64
2016-12-26T04:42:07.201Z,11.64
2016-12-26T04:43:21.628Z,11.65
2016-12-26T04:44:36.035Z,11.66
2016-12-26T04:45:50.147Z,11.66
2016-12-26T04:47:04.524Z,11.65
2016-12-26T04:48:18.623Z,11.65
2016-12-26T04:49:33.407Z,11.65
2016-12-26T04:50:47.529Z,11.66
2016-12-26T04:52:01.916Z,11.66
2016-12-26T04:53:18.235Z,11.69
2016-12-26T04:54:32.528Z,11.7
2016-12-26T04:55:46.826Z,11.7
2016-12-26T04:57:01.174Z,11.71
2016-12-26T04:58:15.262Z,11.73
2016-12-26T04:59:29.363Z,11.73
2016-12-26T05:00:43.707Z,11.74
2016-12-26T05:01:58.436Z,11.74
2016-12-26T05:05:16.055Z,11.76
2016-12-26T05:06:30.079Z,11.74
2016-12-26T05:07:44.434Z,11.71
2016-12-26T05:08:59.852Z,11.7
2016-12-26T05:10:14.290Z,11.71
2016-12-26T05:11:28.352Z,11.74
2016-12-26T05:12:42.460Z,11.75
2016-12-26T05:13:56.756Z,11.77
2016-12-26T05:15:10.842Z,11.8
2016-12-26T05:16:25.084Z,11.82
2016-12-26T05:17:39.523Z,11.85
2016-12-26T05:18:53.854Z,11.87
2016-12-26T05:20:08.578Z,11.9
2016-12-26T05:21:22.999Z,11.91
2016-12-26T05:22:37.093Z,11.9
2016-12-26T05:23:51.577Z,11.88
2016-12-26T05:25:05.907Z,11.87
2016-12-26T05:26:20.865Z,11.85
2016-12-26T05:27:34.894Z,11.81
2016-12-26T05:28:48.947Z,11.78
2016-12-26T05:30:03.226Z,11.78
2016-12-26T05:31:17.348Z,11.79
2016-12-26T05:32:31.985Z,11.79
2016-12-26T05:33:46.291Z,11.8
2016-12-26T05:35:00.344Z,11.8
2016-12-26T05:36:14.779Z,11.8
2016-12-26T05:37:28.813Z,11.79
2016-12-26T05:38:43.541Z,11.81
2016-12-26T05:39:58.606Z,11.81
2016-12-26T05:41:12.688Z,11.81
2016-12-26T05:42:26.981Z,11.8
2016-12-26T05:43:41.046Z,11.78
2016-12-26T05:44:55.776Z,11.78
2016-12-26T05:46:10.095Z,11.78
2016-12-26T05:47:24.234Z,11.78
2016-12-26T05:48:38.848Z,11.76
2016-12-26T05:49:53.329Z,11.76
2016-12-26T05:51:08.306Z,11.77
2016-12-26T05:52:22.352Z,11.8
2016-12-26T05:53:36.821Z,11.79
2016-12-26T05:54:50.894Z,11.77
2016-12-26T05:56:04.985Z,11.75
2016-12-26T05:57:19.577Z,11.72
2016-12-26T05:58:33.959Z,11.68
2016-12-26T05:59:48.384Z,11.68
2016-12-26T06:01:02.921Z,11.66
2016-12-26T06:02:16.958Z,11.66
2016-12-26T06:03:31.324Z,11.65
2016-12-26T06:04:45.624Z,11.66
2016-12-26T06:06:00.401Z,11.66
2016-12-26T06:07:14.504Z,11.64
2016-12-26T06:08:29.327Z,11.62
2016-12-26T06:09:44.428Z,11.62
2016-12-26T06:11:02.074Z,11.65
2016-12-26T06:12:16.140Z,11.67
2016-12-26T06:13:30.283Z,11.7
2016-12-26T06:14:45.112Z,11.72
2016-12-26T06:15:59.616Z,11.74
2016-12-26T06:17:14.254Z,11.74
2016-12-26T06:18:28.348Z,11.74
2016-12-26T06:19:42.921Z,11.74
2016-12-26T06:20:57.402Z,11.74
2016-12-26T06:22:11.829Z,11.73
2016-12-26T06:23:26.288Z,11.72
2016-12-26T06:24:40.647Z,11.71
2016-12-26T06:25:55.554Z,11.71
2016-12-26T06:27:10.089Z,11.71
2016-12-26T06:28:25.209Z,11.69
2016-12-26T06:29:39.739Z,11.7
2016-12-26T06:30:54.240Z,11.71
2016-12-26T06:32:08.743Z,11.71
2016-12-26T06:33:23.842Z,11.68
2016-12-26T06:34:38.209Z,11.66
2016-12-26T06:35:53.531Z,11.64
2016-12-26T06:37:07.667Z,11.64
2016-12-26T06:38:22.983Z,11.64
2016-12-26T06:39:37.315Z,11.64
2016-12-26T06:40:51.950Z,11.64
2016-12-26T06:42:06.085Z,11.62
2016-12-26T06:43:20.436Z,11.61
2016-12-26T06:44:34.904Z,11.61
2016-12-26T06:45:49.450Z,11.63
2016-12-26T06:47:04.007Z,11.62
2016-12-26T06:48:18.404Z,11.62
2016-12-26T06:49:32.925Z,11.59
2016-12-26T06:50:47.297Z,11.59
2016-12-26T06:52:01.607Z,11.6
2016-12-26T06:53:16.213Z,11.61
2016-12-26T06:54:30.359Z,11.6
2016-12-26T06:55:44.446Z,11.59
2016-12-26T06:56:58.533Z,11.61
2016-12-26T06:58:12.591Z,11.64
2016-12-26T06:59:27.144Z,11.65
2016-12-26T07:00:41.526Z,11.67
2016-12-26T07:01:56.208Z,11.66
2016-12-26T07:03:10.933Z,11.67
2016-12-26T07:04:24.990Z,11.67
2016-12-26T07:05:39.279Z,11.66
2016-12-26T07:06:53.437Z,11.66
2016-12-26T07:08:07.885Z,11.67
2016-12-26T07:09:22.868Z,11.71
2016-12-26T07:10:36.910Z,11.73
2016-12-26T07:11:52.317Z,11.73
2016-12-26T07:13:06.743Z,11.74
2016-12-26T07:14:20.846Z,11.75
2016-12-26T07:15:35.274Z,11.76
2016-12-26T07:16:49.758Z,11.75
2016-12-26T07:18:05.101Z,11.76
2016-12-26T07:21:32.667Z,11.74
2016-12-26T07:22:46.887Z,11.73
2016-12-26T07:24:16.181Z,11.72
2016-12-26T07:25:30.306Z,11.7
2016-12-26T07:26:44.427Z,11.65
2016-12-26T07:27:58.851Z,11.61
2016-12-26T07:29:15.961Z,11.59
2016-12-26T07:30:30.282Z,11.56
2016-12-26T07:31:44.625Z,11.55
2016-12-26T07:32:58.747Z,11.56
2016-12-26T07:34:13.446Z,11.57
2016-12-26T07:35:27.545Z,11.58
2016-12-26T07:36:42.077Z,11.59
2016-12-26T07:37:56.490Z,11.61
2016-12-26T07:39:10.556Z,11.63
2016-12-26T07:40:24.632Z,11.62
2016-12-26T07:41:38.686Z,11.62
2016-12-26T07:42:53.348Z,11.61
2016-12-26T07:44:07.654Z,11.62
2016-12-26T07:45:21.674Z,11.63
2016-12-26T07:46:35.748Z,11.66
2016-12-26T07:47:49.952Z,11.67
2016-12-26T07:49:04.595Z,11.7
2016-12-26T07:50:19.307Z,11.73
2016-12-26T07:51:33.404Z,11.77
2016-12-26T07:52:47.538Z,11.79
2016-12-26T07:54:01.602Z,11.8
2016-12-26T07:55:16.816Z,11.81
2016-12-26T07:56:30.910Z,11.79
2016-12-26T07:57:45.246Z,11.79
2016-12-26T07:58:59.334Z,11.76
2016-12-26T08:00:14.069Z,11.73
2016-12-26T08:01:28.941Z,11.73
2016-12-26T08:02:43.693Z,11.73
2016-12-26T08:04:00.603Z,11.74
2016-12-26T08:05:14.716Z,11.74
2016-12-26T08:06:29.400Z,11.73
2016-12-26T08:07:43.786Z,11.74
2016-12-26T08:08:58.080Z,11.75
2016-12-26T08:10:12.225Z,11.73
2016-12-26T08:11:26.330Z,11.74
2016-12-26T08:12:40.706Z,11.74
2016-12-26T08:13:55.387Z,11.76
2016-12-26T08:15:10.196Z,11.8
2016-12-26T08:16:24.234Z,11.81
2016-12-26T08:17:38.304Z,11.8
2016-12-26T08:18:52.775Z,11.82
2016-12-26T08:20:07.486Z,11.82
2016-12-26T08:21:21.892Z,11.8
2016-12-26T08:22:36.195Z,11.79
2016-12-26T08:23:50.654Z,11.76
2016-12-26T08:25:05.151Z,11.74
2016-12-26T08:26:19.436Z,11.73
2016-12-26T08:27:34.058Z,11.72
2016-12-26T08:28:48.344Z,11.74
2016-12-26T08:30:02.390Z,11.76
2016-12-26T08:31:17.222Z,11.78
2016-12-26T08:32:31.896Z,11.79
2016-12-26T08:33:45.973Z,11.8
2016-12-26T08:35:00.270Z,11.79
2016-12-26T08:36:14.753Z,11.79
2016-12-26T08:37:28.864Z,11.8
2016-12-26T08:38:43.806Z,11.8
2016-12-26T08:39:58.235Z,11.79
2016-12-26T08:41:12.993Z,11.8
2016-12-26T08:42:27.884Z,11.8
2016-12-26T08:43:42.344Z,11.8
2016-12-26T08:44:57.953Z,11.82
2016-12-26T08:46:15.397Z,11.84
2016-12-26T08:47:29.576Z,11.85
2016-12-26T08:48:44.324Z,11.85
2016-12-26T08:49:58.435Z,11.86
2016-12-26T08:51:13.160Z,11.89
2016-12-26T08:52:27.585Z,11.9
2016-12-26T08:53:42.765Z,11.9
2016-12-26T08:54:57.097Z,11.87
2016-12-26T08:56:11.249Z,11.85
2016-12-26T08:57:25.590Z,11.83
2016-12-26T08:58:39.990Z,11.79
2016-12-26T08:59:54.036Z,11.79
2016-12-26T09:01:08.347Z,11.77
2016-12-26T09:02:26.018Z,11.74
2016-12-26T09:03:40.761Z,11.73
2016-12-26T09:04:55.062Z,11.72
2016-12-26T09:06:09.106Z,11.7
2016-12-26T09:07:23.450Z,11.69
2016-12-26T09:08:37.563Z,11.7
2016-12-26T09:09:52.870Z,11.7
2016-12-26T09:11:07.692Z,11.68
2016-12-26T09:12:21.993Z,11.67
2016-12-26T09:13:36.677Z,11.64
2016-12-26T09:14:50.867Z,11.6
2016-12-26T09:16:05.927Z,11.57
2016-12-26T09:17:20.424Z,11.51
2016-12-26T09:18:35.613Z,11.49
2016-12-26T09:19:50.302Z,11.5
2016-12-26T09:21:04.677Z,11.5
2016-12-26T09:22:18.971Z,11.55
2016-12-26T09:23:33.565Z,11.62
2016-12-26T09:24:48.321Z,11.78
2016-12-26T09:26:02.753Z,11.88
2016-12-26T09:27:17.029Z,11.9
2016-12-26T09:28:31.451Z,11.94
2016-12-26T09:29:45.766Z,12.01
2016-12-26T09:31:00.208Z,12.06
2016-12-26T09:32:14.258Z,12.12
2016-12-26T09:33:28.309Z,12.18
2016-12-26T09:34:43.042Z,12.24
2016-12-26T09:35:57.384Z,12.31
2016-12-26T09:37:12.372Z,12.37
2016-12-26T09:38:28.191Z,12.45
2016-12-26T09:39:42.342Z,12.5
2016-12-26T09:40:57.115Z,12.55
2016-12-26T09:42:11.721Z,12.57
2016-12-26T09:43:26.606Z,12.63
2016-12-26T09:44:41.002Z,12.67
2016-12-26T09:45:55.680Z,12.66
2016-12-26T09:47:10.475Z,12.66
2016-12-26T09:48:24.715Z,12.73
2016-12-26T09:49:39.286Z,12.78
2016-12-26T09:51:25.015Z,12.89
2016-12-26T09:52:39.709Z,12.96
2016-12-26T09:53:54.469Z,13.06
2016-12-26T09:55:08.877Z,13.1
2016-12-26T09:56:23.149Z,13.19
2016-12-26T09:57:37.587Z,13.29
2016-12-26T09:58:52.816Z,13.42
2016-12-26T10:00:07.411Z,13.55
2016-12-26T10:01:21.571Z,13.64
2016-12-26T10:02:35.622Z,13.73
2016-12-26T10:03:51.944Z,13.75
2016-12-26T10:05:07.475Z,13.73
2016-12-26T10:06:21.908Z,13.68
2016-12-26T10:07:36.062Z,13.6
2016-12-26T10:08:50.404Z,13.5
2016-12-26T10:10:05.305Z,13.36
2016-12-26T10:11:19.892Z,13.29
2016-12-26T10:12:34.068Z,13.23
2016-12-26T10:13:48.478Z,13.18
2016-12-26T10:15:02.585Z,13.18
2016-12-26T10:16:17.143Z,13.16
2016-12-26T10:17:31.447Z,13.14
2016-12-26T10:18:45.944Z,13.15
2016-12-26T10:20:00.685Z,13.18
2016-12-26T10:21:15.334Z,13.2
2016-12-26T10:22:29.710Z,13.23
2016-12-26T10:23:44.285Z,13.24
2016-12-26T10:24:58.765Z,13.25
2016-12-26T10:26:13.862Z,13.25
2016-12-26T10:27:28.183Z,13.25
2016-12-26T10:28:42.451Z,13.22
2016-12-26T10:29:57.322Z,13.19
2016-12-26T10:31:11.418Z,13.16
2016-12-26T10:32:26.058Z,13.16
2016-12-26T10:33:40.129Z,13.15
2016-12-26T10:34:54.576Z,13.11
2016-12-26T10:36:09.142Z,13.06
2016-12-26T10:37:23.434Z,13.04
2016-12-26T10:38:37.738Z,13.08
2016-12-26T10:39:51.854Z,13.11
2016-12-26T10:41:06.707Z,13.12
2016-12-26T10:42:21.053Z,13.13
2016-12-26T10:43:35.430Z,13.15
2016-12-26T10:44:49.507Z,13.15
2016-12-26T10:46:03.954Z,13.17
2016-12-26T10:47:18.375Z,13.19
2016-12-26T10:48:33.497Z,13.22
2016-12-26T10:49:47.558Z,13.24
2016-12-26T10:51:01.732Z,13.24
2016-12-26T10:52:16.048Z,13.22
2016-12-26T10:53:30.801Z,13.23
2016-12-26T10:54:45.112Z,13.25
2016-12-26T10:55:59.992Z,13.32
2016-12-26T10:57:14.413Z,13.38
2016-12-26T10:58:28.910Z,13.41
2016-12-26T10:59:43.021Z,13.43
2016-12-26T11:00:57.820Z,13.42
2016-12-26T11:02:12.800Z,13.42
2016-12-26T11:03:27.134Z,13.44
2016-12-26T11:04:41.201Z,13.48
2016-12-26T11:05:55.699Z,13.49
2016-12-26T11:07:10.312Z,13.54
2016-12-26T11:08:24.966Z,13.53
2016-12-26T11:09:40.550Z,13.47
2016-12-26T11:10:54.982Z,13.42
2016-12-26T11:12:09.051Z,13.43
2016-12-26T11:13:23.464Z,13.46
2016-12-26T11:14:38.077Z,13.47
2016-12-26T11:15:52.436Z,13.49
2016-12-26T11:17:06.755Z,13.49
2016-12-26T11:18:21.077Z,13.52
2016-12-26T11:19:35.527Z,13.57
2016-12-26T11:20:52.735Z,13.59
2016-12-26T11:22:06.822Z,13.6
2016-12-26T11:23:21.835Z,13.62
2016-12-26T11:24:35.940Z,13.63
2016-12-26T11:25:50.347Z,13.66
2016-12-26T11:27:04.959Z,13.68
2016-12-26T11:28:34.614Z,13.69
2016-12-26T11:29:48.661Z,13.74
2016-12-26T11:31:03.521Z,13.77
2016-12-26T11:32:17.679Z,13.79
2016-12-26T11:33:31.849Z,13.81
2016-12-26T11:34:46.721Z,13.84
2016-12-26T11:36:01.203Z,13.86
2016-12-26T11:37:30.751Z,13.91
2016-12-26T11:38:44.907Z,13.95
2016-12-26T11:39:59.324Z,13.98
2016-12-26T11:41:14.534Z,13.99
2016-12-26T11:42:28.667Z,14.02
2016-12-26T11:43:44.300Z,14.07
2016-12-26T11:44:58.481Z,14.13
2016-12-26T11:46:12.745Z,14.18
2016-12-26T11:47:41.881Z,14.2
2016-12-26T11:48:56.638Z,14.19
2016-12-26T11:50:10.815Z,14.1
2016-12-26T11:51:24.998Z,14.07
2016-12-26T11:52:39.431Z,14.02
2016-12-26T11:53:53.612Z,13.95
2016-12-26T11:55:08.289Z,13.84
2016-12-26T11:56:22.363Z,13.77
2016-12-26T11:57:36.531Z,13.7
2016-12-26T11:58:50.974Z,13.65
2016-12-26T12:00:05.503Z,13.61
2016-12-26T12:01:20.288Z,13.57
2016-12-26T12:02:34.384Z,13.56
2016-12-26T12:03:48.955Z,13.58
2016-12-26T12:05:03.389Z,13.58
2016-12-26T12:06:17.852Z,13.54
2016-12-26T12:07:32.199Z,13.55
2016-12-26T12:08:46.364Z,13.56
2016-12-26T12:10:00.814Z,13.56
2016-12-26T12:11:15.403Z,13.58
2016-12-26T12:12:30.192Z,13.62
2016-12-26T12:13:44.907Z,13.64
2016-12-26T12:14:59.481Z,13.63
2016-12-26T12:16:13.961Z,13.59
2016-12-26T12:17:29.241Z,13.54
2016-12-26T12:18:44.279Z,13.53
2016-12-26T12:19:59.096Z,13.54
2016-12-26T12:21:13.211Z,13.54
2016-12-26T12:22:28.165Z,13.53
2016-12-26T12:23:43.173Z,13.53
2016-12-26T12:24:57.649Z,13.51
2016-12-26T12:26:12.234Z,13.47
2016-12-26T12:27:26.705Z,13.47
2016-12-26T12:28:40.875Z,13.46
2016-12-26T12:29:56.133Z,13.39
2016-12-26T12:31:10.974Z,13.28
2016-12-26T12:32:25.371Z,13.15
2016-12-26T12:33:40.109Z,12.99
2016-12-26T12:34:54.417Z,12.81
2016-12-26T12:36:09.283Z,12.6
2016-12-26T12:37:24.222Z,12.4
2016-12-26T12:38:41.354Z,12.26
2016-12-26T12:39:55.885Z,12.15
2016-12-26T12:41:10.440Z,12.08
2016-12-26T12:42:24.925Z,11.97
2016-12-26T12:43:39.269Z,11.9
2016-12-26T12:44:53.868Z,11.83
2016-12-26T12:46:07.980Z,11.78
2016-12-26T12:47:22.508Z,11.72
2016-12-26T12:48:37.300Z,11.66
2016-12-26T12:49:51.393Z,11.61
2016-12-26T12:51:06.323Z,11.59
2016-12-26T12:52:20.575Z,11.57
2016-12-26T12:53:35.899Z,11.56
2016-12-26T12:54:49.951Z,11.54
2016-12-26T12:56:07.383Z,11.51
2016-12-26T12:57:23.791Z,11.47
2016-12-26T12:58:37.958Z,11.48
2016-12-26T13:00:07.591Z,11.53
2016-12-26T13:01:22.148Z,11.58
2016-12-26T13:02:36.971Z,11.63
2016-12-26T13:03:52.540Z,11.7
2016-12-26T13:05:07.029Z,11.68
2016-12-26T13:06:21.533Z,11.64
2016-12-26T13:07:36.640Z,11.56
2016-12-26T13:08:50.974Z,11.52
2016-12-26T13:10:05.449Z,11.43
2016-12-26T13:11:19.904Z,11.34
2016-12-26T13:12:34.381Z,11.26
2016-12-26T13:13:49.062Z,11.18
2016-12-26T13:15:03.409Z,11.16
2016-12-26T13:16:17.529Z,11.17
2016-12-26T13:17:32.585Z,11.16
2016-12-26T13:18:46.817Z,11.14
2016-12-26T13:20:00.882Z,11.12
2016-12-26T13:21:15.223Z,11.11
2016-12-26T13:22:29.966Z,11.07
2016-12-26T13:23:44.619Z,11.02
2016-12-26T13:24:59.560Z,11.01
2016-12-26T13:26:14.155Z,11
2016-12-26T13:27:28.789Z,10.99
2016-12-26T13:28:43.163Z,11.02
2016-12-26T13:29:57.563Z,11.03
2016-12-26T13:31:11.724Z,11.07
2016-12-26T13:32:26.246Z,11.11
2016-12-26T13:33:41.349Z,11.19
2016-12-26T13:34:55.540Z,11.25
2016-12-26T13:36:10.260Z,11.32
2016-12-26T13:37:25.220Z,11.4
2016-12-26T13:38:39.786Z,11.43
2016-12-26T13:39:54.944Z,11.47
2016-12-26T13:41:09.101Z,11.52
2016-12-26T13:42:23.239Z,11.56
2016-12-26T13:43:37.706Z,11.58
2016-12-26T13:44:51.787Z,11.6
2016-12-26T13:46:06.695Z,11.64
2016-12-26T13:47:20.831Z,11.64
2016-12-26T13:48:35.259Z,11.62
2016-12-26T13:49:50.019Z,11.6
2016-12-26T13:51:04.252Z,11.6
2016-12-26T13:52:19.505Z,11.59
2016-12-26T13:53:49.444Z,11.58
2016-12-26T13:55:04.169Z,11.55
2016-12-26T13:56:20.685Z,11.51
2016-12-26T13:57:35.320Z,11.44
2016-12-26T13:58:49.552Z,11.37
2016-12-26T14:00:03.617Z,11.29
2016-12-26T14:01:17.747Z,11.2
2016-12-26T14:02:32.700Z,11.11
2016-12-26T14:03:46.838Z,11.07
2016-12-26T14:05:01.995Z,11.02
2016-12-26T14:06:16.687Z,11.01
2016-12-26T14:07:30.790Z,11.03
2016-12-26T14:08:45.163Z,11.04
2016-12-26T14:09:59.668Z,11.06
2016-12-26T14:11:14.100Z,11.08
2016-12-26T14:12:28.194Z,11.09
2016-12-26T14:13:42.910Z,11.13
2016-12-26T14:14:57.996Z,11.14
2016-12-26T14:16:13.841Z,11.15
2016-12-26T14:17:28.054Z,11.18
2016-12-26T14:18:42.759Z,11.21
2016-12-26T14:19:56.799Z,11.23
2016-12-26T14:21:11.480Z,11.22
2016-12-26T14:22:26.211Z,11.25
2016-12-26T14:23:40.460Z,11.25
2016-12-26T14:24:55.582Z,11.27
2016-12-26T14:26:10.023Z,11.28
2016-12-26T14:27:24.398Z,11.29
2016-12-26T14:28:39.746Z,11.28
2016-12-26T14:29:54.016Z,11.26
2016-12-26T14:31:08.504Z,11.25
2016-12-26T14:32:23.200Z,11.23
2016-12-26T14:33:37.363Z,11.21
2016-12-26T14:34:52.214Z,11.2
2016-12-26T14:36:06.504Z,11.2
2016-12-26T14:37:21.340Z,11.2
2016-12-26T14:38:36.083Z,11.17
2016-12-26T14:39:50.935Z,11.12
2016-12-26T14:41:05.930Z,11.08
2016-12-26T14:42:20.469Z,11.05
2016-12-26T14:43:35.302Z,11.01
2016-12-26T14:44:49.376Z,10.99
2016-12-26T14:46:03.447Z,10.94
2016-12-26T14:47:18.001Z,10.89
2016-12-26T14:48:32.674Z,10.83
2016-12-26T14:49:47.583Z,10.8
2016-12-26T14:51:02.015Z,10.77
2016-12-26T14:52:16.497Z,10.76
2016-12-26T14:53:30.912Z,10.74
2016-12-26T14:57:42.949Z,10.69
2016-12-26T14:58:57.303Z,10.66
2016-12-26T15:00:11.350Z,10.65
2016-12-26T15:01:25.477Z,10.63
2016-12-26T15:02:40.629Z,10.6
2016-12-26T15:03:54.874Z,10.56
2016-12-26T15:05:09.979Z,10.51
2016-12-26T15:06:24.195Z,10.48
2016-12-26T15:07:38.355Z,10.46
2016-12-26T15:08:52.721Z,10.46
2016-12-26T15:10:06.840Z,10.45
2016-12-26T15:11:21.831Z,10.45
2016-12-26T15:12:35.983Z,10.44
2016-12-26T15:13:50.406Z,10.44
2016-12-26T15:15:07.051Z,10.45
2016-12-26T15:16:21.537Z,10.39
2016-12-26T15:17:35.980Z,10.35
2016-12-26T15:18:50.279Z,10.34
2016-12-26T15:20:05.450Z,10.33
2016-12-26T15:21:19.786Z,10.34
2016-12-26T15:22:34.693Z,10.35
2016-12-26T15:23:49.040Z,10.37
2016-12-26T15:25:03.786Z,10.39
2016-12-26T15:26:18.277Z,10.39
2016-12-26T15:27:32.675Z,10.4
2016-12-26T15:28:46.856Z,10.38
2016-12-26T15:30:01.978Z,10.36
2016-12-26T15:31:16.705Z,10.35
2016-12-26T15:32:31.242Z,10.35
2016-12-26T15:33:45.805Z,10.35
2016-12-26T15:35:00.075Z,10.36
2016-12-26T15:36:14.735Z,10.38
2016-12-26T15:37:29.222Z,10.38
2016-12-26T15:38:43.687Z,10.36
2016-12-26T15:39:58.487Z,10.33
2016-12-26T15:41:12.927Z,10.32
2016-12-26T15:42:28.814Z,10.29
2016-12-26T15:43:43.448Z,10.28
2016-12-26T15:44:58.503Z,10.29
2016-12-26T15:46:13.167Z,10.31
2016-12-26T15:47:28.033Z,10.33
2016-12-26T15:48:42.778Z,10.36
2016-12-26T15:50:12.257Z,10.38
2016-12-26T15:51:27.331Z,10.38
2016-12-26T15:52:42.057Z,10.41
2016-12-26T15:53:56.837Z,10.43
2016-12-26T15:55:12.752Z,10.45
2016-12-26T15:56:27.127Z,10.46
2016-12-26T15:57:41.410Z,10.45
2016-12-26T15:58:56.070Z,10.4
2016-12-26T16:00:11.273Z,10.34
2016-12-26T16:01:26.093Z,10.31
2016-12-26T16:02:40.506Z,10.31
2016-12-26T16:03:55.753Z,10.33
2016-12-26T16:05:11.905Z,10.34
2016-12-26T16:06:29.963Z,10.34
2016-12-26T16:07:47.370Z,10.36
2016-12-26T16:09:02.831Z,10.37
2016-12-26T16:10:17.244Z,10.39
2016-12-26T16:11:33.003Z,10.39
2016-12-26T16:12:48.216Z,10.37
2016-12-26T16:14:02.543Z,10.35
2016-12-26T16:15:17.801Z,10.31